首页
METAR-TAF:

METAR-TAF

机场 :

阿卡普尔科, 墨西哥

纬度: 16-46N, 经度: 099-45W, 海拔: 5米

当前天气观测

该预报发布于1小时和3分钟前的05:48 UTC
静风
温度 24°C
湿度 89%
气压 1014 hPa
能見度: 8.0公里
散云层高于30000英尺

METAR: MMAA 200548Z 00000KT 5SM SCT300 24/22 A2993 RMK SLP136 52010 951 8/002 HZY

时间: 00:51 (06:51 UTC)

预报

该预报发布于2小时和33分钟前的04:18 UTC
预报有效从20日的 06点(UTC)到 21日的 12点(UTC)
风速5节,风向北转西北
能見度: 8.0公里
散云层高于30000英尺
从 20日的 1800点(UTC)
风速10节,风向西南
能見度: 9.7公里
多云层高于30000英尺
从 21日的 0500点(UTC)
风速5节,风向北转东北
能見度: 9.7公里
散云层高于30000英尺

TAF: MMAA 200418Z 2006/2112 34005KT 5SM HZ SCT300 TX30/2019Z TN22/2012Z FM201800 23010KT 6SM HZ BKN300 FM210500 03005KT 6SM HZ SCT300

超过4000个机场的气象观测和天气预报(METAR&TAF报告)。

可查询的气象台以黄色和红色小点在地图上表示。

将鼠标移到小点上方,可查看气象台名称。

然后点击查看天气观测和预报。

如需切换地图:点击带黑十字的绿色按钮放大地图;点击带横线的绿色按钮缩小地图;或者点击绿色箭头查看邻近地区的地图。


METAR-TAF: